sensor_id;sensor_type;location;lat;lon;timestamp;temperature;humidity
16846;DHT22;8539;53.188;8.696;2023-02-27T00:01:00;-3.30;99.90
16846;DHT22;8539;53.188;8.696;2023-02-27T00:03:31;-3.30;99.90
16846;DHT22;8539;53.188;8.696;2023-02-27T00:05:58;-3.40;99.90
16846;DHT22;8539;53.188;8.696;2023-02-27T00:08:24;-3.40;99.90
16846;DHT22;8539;53.188;8.696;2023-02-27T00:10:52;-3.40;99.90
16846;DHT22;8539;53.188;8.696;2023-02-27T00:13:18;-3.40;99.90
16846;DHT22;8539;53.188;8.696;2023-02-27T00:15:47;-3.40;99.90
16846;DHT22;8539;53.188;8.696;2023-02-27T00:18:15;-3.40;99.90
16846;DHT22;8539;53.188;8.696;2023-02-27T00:20:42;-3.40;99.90
16846;DHT22;8539;53.188;8.696;2023-02-27T00:23:09;-3.40;99.90
16846;DHT22;8539;53.188;8.696;2023-02-27T00:25:36;-3.40;99.90
16846;DHT22;8539;53.188;8.696;2023-02-27T00:28:04;-3.50;99.90
16846;DHT22;8539;53.188;8.696;2023-02-27T00:30:34;-3.50;99.90
16846;DHT22;8539;53.188;8.696;2023-02-27T00:33:03;-3.50;99.90
16846;DHT22;8539;53.188;8.696;2023-02-27T00:35:30;-3.50;99.90
16846;DHT22;8539;53.188;8.696;2023-02-27T00:37:57;-3.50;99.90
16846;DHT22;8539;53.188;8.696;2023-02-27T00:40:25;-3.50;99.90
16846;DHT22;8539;53.188;8.696;2023-02-27T00:42:52;-3.50;99.90
16846;DHT22;8539;53.188;8.696;2023-02-27T00:45:19;-3.50;99.90
16846;DHT22;8539;53.188;8.696;2023-02-27T00:47:45;-3.50;99.90
16846;DHT22;8539;53.188;8.696;2023-02-27T00:50:14;-3.50;99.90
16846;DHT22;8539;53.188;8.696;2023-02-27T00:52:41;-3.60;99.90
16846;DHT22;8539;53.188;8.696;2023-02-27T00:55:08;-3.60;99.90
16846;DHT22;8539;53.188;8.696;2023-02-27T00:57:35;-3.60;99.90
16846;DHT22;8539;53.188;8.696;2023-02-27T01:00:02;-3.60;99.90
16846;DHT22;8539;53.188;8.696;2023-02-27T01:02:31;-3.60;99.90
16846;DHT22;8539;53.188;8.696;2023-02-27T01:05:00;-3.60;99.90
16846;DHT22;8539;53.188;8.696;2023-02-27T01:07:26;-3.60;99.90
16846;DHT22;8539;53.188;8.696;2023-02-27T01:09:52;-3.60;99.90
16846;DHT22;8539;53.188;8.696;2023-02-27T01:12:19;-3.60;99.90
16846;DHT22;8539;53.188;8.696;2023-02-27T01:14:45;-3.60;99.90
16846;DHT22;8539;53.188;8.696;2023-02-27T01:17:11;-3.60;99.90
16846;DHT22;8539;53.188;8.696;2023-02-27T01:19:37;-3.60;99.90
16846;DHT22;8539;53.188;8.696;2023-02-27T01:22:03;-3.60;99.90
16846;DHT22;8539;53.188;8.696;2023-02-27T01:24:29;-2.60;99.90
16846;DHT22;8539;53.188;8.696;2023-02-27T01:26:56;-3.70;99.90
16846;DHT22;8539;53.188;8.696;2023-02-27T01:29:22;-3.70;99.90
16846;DHT22;8539;53.188;8.696;2023-02-27T01:31:48;-3.70;99.90
16846;DHT22;8539;53.188;8.696;2023-02-27T01:34:14;-3.70;99.90
16846;DHT22;8539;53.188;8.696;2023-02-27T01:36:40;-3.70;99.90
16846;DHT22;8539;53.188;8.696;2023-02-27T01:39:07;-3.70;99.90
16846;DHT22;8539;53.188;8.696;2023-02-27T01:41:33;-3.70;99.90
16846;DHT22;8539;53.188;8.696;2023-02-27T01:44:11;-3.70;99.90
16846;DHT22;8539;53.188;8.696;2023-02-27T01:46:37;-3.70;99.90
16846;DHT22;8539;53.188;8.696;2023-02-27T01:49:11;-3.70;99.90
16846;DHT22;8539;53.188;8.696;2023-02-27T01:51:45;-3.70;99.90
16846;DHT22;8539;53.188;8.696;2023-02-27T01:54:16;-3.70;99.90
16846;DHT22;8539;53.188;8.696;2023-02-27T01:56:44;-3.70;99.90
16846;DHT22;8539;53.188;8.696;2023-02-27T01:59:11;-3.70;99.90
16846;DHT22;8539;53.188;8.696;2023-02-27T02:01:37;-3.70;99.90
16846;DHT22;8539;53.188;8.696;2023-02-27T02:06:54;-3.70;99.90
16846;DHT22;8539;53.188;8.696;2023-02-27T02:09:22;-3.80;99.90
16846;DHT22;8539;53.188;8.696;2023-02-27T02:11:49;-3.80;99.90
16846;DHT22;8539;53.188;8.696;2023-02-27T02:14:15;-3.80;99.90
16846;DHT22;8539;53.188;8.696;2023-02-27T02:50:38;-3.90;99.90
16846;DHT22;8539;53.188;8.696;2023-02-27T02:59:34;-4.00;99.90
16846;DHT22;8539;53.188;8.696;2023-02-27T03:02:14;-4.00;99.90
16846;DHT22;8539;53.188;8.696;2023-02-27T03:07:28;-4.00;99.90
16846;DHT22;8539;53.188;8.696;2023-02-27T03:12:22;-4.00;99.90
16846;DHT22;8539;53.188;8.696;2023-02-27T03:15:05;-4.00;99.90
16846;DHT22;8539;53.188;8.696;2023-02-27T03:17:46;-4.10;99.90
16846;DHT22;8539;53.188;8.696;2023-02-27T03:20:33;-4.10;99.90
16846;DHT22;8539;53.188;8.696;2023-02-27T03:23:05;-4.10;99.90
16846;DHT22;8539;53.188;8.696;2023-02-27T03:25:34;-4.10;99.90
16846;DHT22;8539;53.188;8.696;2023-02-27T03:28:08;-4.10;99.90
16846;DHT22;8539;53.188;8.696;2023-02-27T03:31:03;-4.10;99.90
16846;DHT22;8539;53.188;8.696;2023-02-27T03:38:53;-4.10;99.90
16846;DHT22;8539;53.188;8.696;2023-02-27T03:46:24;-4.20;99.90
16846;DHT22;8539;53.188;8.696;2023-02-27T03:48:51;-4.20;99.90
16846;DHT22;8539;53.188;8.696;2023-02-27T03:51:22;-4.10;99.90
16846;DHT22;8539;53.188;8.696;2023-02-27T03:54:09;-4.20;99.90
16846;DHT22;8539;53.188;8.696;2023-02-27T03:59:07;-4.20;99.90
16846;DHT22;8539;53.188;8.696;2023-02-27T04:01:33;-4.20;99.90
16846;DHT22;8539;53.188;8.696;2023-02-27T04:04:03;-4.20;99.90
16846;DHT22;8539;53.188;8.696;2023-02-27T04:06:31;-4.20;99.90
16846;DHT22;8539;53.188;8.696;2023-02-27T04:11:59;-4.20;99.90
16846;DHT22;8539;53.188;8.696;2023-02-27T04:17:26;-4.20;99.90
16846;DHT22;8539;53.188;8.696;2023-02-27T04:20:20;-4.20;99.90
16846;DHT22;8539;53.188;8.696;2023-02-27T04:35:53;-4.20;99.90
16846;DHT22;8539;53.188;8.696;2023-02-27T04:38:34;-4.10;99.90
16846;DHT22;8539;53.188;8.696;2023-02-27T04:41:10;-4.10;99.90
16846;DHT22;8539;53.188;8.696;2023-02-27T04:43:39;-4.00;99.90
16846;DHT22;8539;53.188;8.696;2023-02-27T04:46:08;-4.10;99.90
16846;DHT22;8539;53.188;8.696;2023-02-27T04:54:39;-4.10;99.90
16846;DHT22;8539;53.188;8.696;2023-02-27T04:57:10;-4.20;99.90
16846;DHT22;8539;53.188;8.696;2023-02-27T04:59:41;-4.10;99.90
16846;DHT22;8539;53.188;8.696;2023-02-27T05:04:41;-4.20;99.90
16846;DHT22;8539;53.188;8.696;2023-02-27T05:07:12;-4.20;99.90
16846;DHT22;8539;53.188;8.696;2023-02-27T05:09:50;-4.20;99.90
16846;DHT22;8539;53.188;8.696;2023-02-27T05:12:43;-4.20;99.90
16846;DHT22;8539;53.188;8.696;2023-02-27T05:15:17;-4.20;99.90
16846;DHT22;8539;53.188;8.696;2023-02-27T05:18:03;-4.20;99.90
16846;DHT22;8539;53.188;8.696;2023-02-27T05:29:00;-4.20;99.90
16846;DHT22;8539;53.188;8.696;2023-02-27T05:31:34;-4.20;99.90
16846;DHT22;8539;53.188;8.696;2023-02-27T05:34:06;-4.20;99.90
16846;DHT22;8539;53.188;8.696;2023-02-27T05:36:36;-4.20;99.90
16846;DHT22;8539;53.188;8.696;2023-02-27T05:39:08;-4.10;99.90
16846;DHT22;8539;53.188;8.696;2023-02-27T05:41:41;-4.10;99.90
16846;DHT22;8539;53.188;8.696;2023-02-27T05:44:15;-4.10;99.90
16846;DHT22;8539;53.188;8.696;2023-02-27T05:47:01;-4.10;99.90
16846;DHT22;8539;53.188;8.696;2023-02-27T05:49:32;-4.10;99.90
16846;DHT22;8539;53.188;8.696;2023-02-27T05:52:02;-4.10;99.90
16846;DHT22;8539;53.188;8.696;2023-02-27T05:54:42;-4.10;99.90
16846;DHT22;8539;53.188;8.696;2023-02-27T05:57:13;-4.10;99.90
16846;DHT22;8539;53.188;8.696;2023-02-27T05:59:53;-4.10;99.90
16846;DHT22;8539;53.188;8.696;2023-02-27T06:02:20;-4.10;99.90
16846;DHT22;8539;53.188;8.696;2023-02-27T06:04:46;-4.10;99.90
16846;DHT22;8539;53.188;8.696;2023-02-27T06:07:13;-4.10;99.90
16846;DHT22;8539;53.188;8.696;2023-02-27T06:09:41;-4.10;99.90
16846;DHT22;8539;53.188;8.696;2023-02-27T06:12:08;-4.10;99.90
16846;DHT22;8539;53.188;8.696;2023-02-27T06:14:34;-4.10;99.90
16846;DHT22;8539;53.188;8.696;2023-02-27T06:17:00;-4.10;99.90
16846;DHT22;8539;53.188;8.696;2023-02-27T06:19:26;-4.10;99.90
16846;DHT22;8539;53.188;8.696;2023-02-27T06:21:52;-4.20;99.90
16846;DHT22;8539;53.188;8.696;2023-02-27T06:24:18;-4.10;99.90
16846;DHT22;8539;53.188;8.696;2023-02-27T06:26:44;-4.10;99.90
16846;DHT22;8539;53.188;8.696;2023-02-27T06:29:10;-4.10;99.90
16846;DHT22;8539;53.188;8.696;2023-02-27T06:31:37;-4.10;99.90
16846;DHT22;8539;53.188;8.696;2023-02-27T06:34:03;-4.00;99.90
16846;DHT22;8539;53.188;8.696;2023-02-27T06:36:29;-4.00;99.90
16846;DHT22;8539;53.188;8.696;2023-02-27T06:38:55;-4.00;99.90
16846;DHT22;8539;53.188;8.696;2023-02-27T06:41:23;-3.90;99.90
16846;DHT22;8539;53.188;8.696;2023-02-27T06:43:49;-3.90;99.90
16846;DHT22;8539;53.188;8.696;2023-02-27T06:46:15;-3.80;99.90
16846;DHT22;8539;53.188;8.696;2023-02-27T06:48:41;-3.80;99.90
16846;DHT22;8539;53.188;8.696;2023-02-27T06:51:07;-3.70;99.90
16846;DHT22;8539;53.188;8.696;2023-02-27T06:53:33;-3.60;99.90
16846;DHT22;8539;53.188;8.696;2023-02-27T06:55:58;-3.60;99.90
16846;DHT22;8539;53.188;8.696;2023-02-27T06:58:25;-3.50;99.90
16846;DHT22;8539;53.188;8.696;2023-02-27T07:00:51;-3.40;99.90
16846;DHT22;8539;53.188;8.696;2023-02-27T07:03:17;-3.30;99.90
16846;DHT22;8539;53.188;8.696;2023-02-27T07:05:43;-3.30;99.90
16846;DHT22;8539;53.188;8.696;2023-02-27T07:08:10;-3.20;99.90
16846;DHT22;8539;53.188;8.696;2023-02-27T07:10:36;-3.00;99.90
16846;DHT22;8539;53.188;8.696;2023-02-27T07:13:03;-3.00;99.90
16846;DHT22;8539;53.188;8.696;2023-02-27T07:15:29;-2.90;99.90
16846;DHT22;8539;53.188;8.696;2023-02-27T07:17:56;-2.70;99.90
16846;DHT22;8539;53.188;8.696;2023-02-27T07:20:22;-2.70;99.90
16846;DHT22;8539;53.188;8.696;2023-02-27T07:22:48;-2.50;99.90
16846;DHT22;8539;53.188;8.696;2023-02-27T07:25:14;-2.40;99.90
16846;DHT22;8539;53.188;8.696;2023-02-27T07:27:41;-2.10;99.90
16846;DHT22;8539;53.188;8.696;2023-02-27T07:30:11;-1.50;99.90
16846;DHT22;8539;53.188;8.696;2023-02-27T07:32:37;-0.50;99.90
16846;DHT22;8539;53.188;8.696;2023-02-27T07:35:03;0.80;99.90
16846;DHT22;8539;53.188;8.696;2023-02-27T07:37:29;1.70;99.90
16846;DHT22;8539;53.188;8.696;2023-02-27T07:39:55;2.70;99.90
16846;DHT22;8539;53.188;8.696;2023-02-27T07:42:21;3.60;99.90
16846;DHT22;8539;53.188;8.696;2023-02-27T07:44:47;4.20;99.90
16846;DHT22;8539;53.188;8.696;2023-02-27T07:47:13;4.80;99.90
16846;DHT22;8539;53.188;8.696;2023-02-27T07:49:39;5.20;99.90
16846;DHT22;8539;53.188;8.696;2023-02-27T07:52:05;5.10;99.90
16846;DHT22;8539;53.188;8.696;2023-02-27T07:54:33;4.70;99.90
16846;DHT22;8539;53.188;8.696;2023-02-27T07:56:59;4.00;99.90
16846;DHT22;8539;53.188;8.696;2023-02-27T07:59:25;3.40;99.90
16846;DHT22;8539;53.188;8.696;2023-02-27T08:01:51;2.90;99.90
16846;DHT22;8539;53.188;8.696;2023-02-27T08:04:17;2.50;99.90
16846;DHT22;8539;53.188;8.696;2023-02-27T08:06:43;2.20;99.90
16846;DHT22;8539;53.188;8.696;2023-02-27T08:09:09;2.40;99.90
16846;DHT22;8539;53.188;8.696;2023-02-27T08:11:35;3.00;99.90
16846;DHT22;8539;53.188;8.696;2023-02-27T08:14:01;3.40;99.90
16846;DHT22;8539;53.188;8.696;2023-02-27T08:16:27;3.40;99.90
16846;DHT22;8539;53.188;8.696;2023-02-27T08:18:53;3.30;99.90
16846;DHT22;8539;53.188;8.696;2023-02-27T08:21:19;3.30;99.90
16846;DHT22;8539;53.188;8.696;2023-02-27T08:23:45;3.00;99.90
16846;DHT22;8539;53.188;8.696;2023-02-27T08:26:12;3.10;99.90
16846;DHT22;8539;53.188;8.696;2023-02-27T08:28:38;3.00;99.90
16846;DHT22;8539;53.188;8.696;2023-02-27T08:31:05;3.40;99.90
16846;DHT22;8539;53.188;8.696;2023-02-27T08:33:32;3.80;99.90
16846;DHT22;8539;53.188;8.696;2023-02-27T08:35:58;4.00;99.90
16846;DHT22;8539;53.188;8.696;2023-02-27T08:38:24;4.00;99.90
16846;DHT22;8539;53.188;8.696;2023-02-27T08:40:51;3.90;99.90
16846;DHT22;8539;53.188;8.696;2023-02-27T08:43:21;3.90;99.90
16846;DHT22;8539;53.188;8.696;2023-02-27T08:45:48;3.90;99.90
16846;DHT22;8539;53.188;8.696;2023-02-27T08:48:14;4.00;99.90
16846;DHT22;8539;53.188;8.696;2023-02-27T08:50:41;4.30;99.90
16846;DHT22;8539;53.188;8.696;2023-02-27T08:53:08;4.70;99.90
16846;DHT22;8539;53.188;8.696;2023-02-27T08:55:34;5.10;99.90
16846;DHT22;8539;53.188;8.696;2023-02-27T08:58:00;5.50;99.90
16846;DHT22;8539;53.188;8.696;2023-02-27T09:00:26;5.80;99.90
16846;DHT22;8539;53.188;8.696;2023-02-27T09:02:54;6.00;99.90
16846;DHT22;8539;53.188;8.696;2023-02-27T09:05:20;6.20;99.90
16846;DHT22;8539;53.188;8.696;2023-02-27T09:07:47;6.50;99.90
16846;DHT22;8539;53.188;8.696;2023-02-27T09:10:14;6.80;99.90
16846;DHT22;8539;53.188;8.696;2023-02-27T09:12:40;7.10;99.90
16846;DHT22;8539;53.188;8.696;2023-02-27T09:15:08;7.50;99.90
16846;DHT22;8539;53.188;8.696;2023-02-27T09:17:34;7.80;99.90
16846;DHT22;8539;53.188;8.696;2023-02-27T09:20:00;8.30;99.90
16846;DHT22;8539;53.188;8.696;2023-02-27T09:22:26;8.80;99.90
16846;DHT22;8539;53.188;8.696;2023-02-27T09:24:52;9.30;99.90
16846;DHT22;8539;53.188;8.696;2023-02-27T09:27:18;9.60;99.90
16846;DHT22;8539;53.188;8.696;2023-02-27T09:29:44;9.90;99.90
16846;DHT22;8539;53.188;8.696;2023-02-27T09:32:10;10.20;99.90
16846;DHT22;8539;53.188;8.696;2023-02-27T09:34:37;10.50;99.90
16846;DHT22;8539;53.188;8.696;2023-02-27T09:37:03;10.80;99.90
16846;DHT22;8539;53.188;8.696;2023-02-27T09:39:29;11.20;99.90
16846;DHT22;8539;53.188;8.696;2023-02-27T09:44:39;11.90;99.90
16846;DHT22;8539;53.188;8.696;2023-02-27T09:47:12;12.10;99.90
16846;DHT22;8539;53.188;8.696;2023-02-27T09:49:51;12.40;99.90
16846;DHT22;8539;53.188;8.696;2023-02-27T09:52:18;12.50;99.60
16846;DHT22;8539;53.188;8.696;2023-02-27T09:54:44;12.50;99.20
16846;DHT22;8539;53.188;8.696;2023-02-27T09:57:36;12.60;98.80
16846;DHT22;8539;53.188;8.696;2023-02-27T10:00:10;12.70;98.40
16846;DHT22;8539;53.188;8.696;2023-02-27T10:05:34;12.50;97.00
16846;DHT22;8539;53.188;8.696;2023-02-27T10:10:50;11.80;95.80
16846;DHT22;8539;53.188;8.696;2023-02-27T10:14:02;11.60;95.70
16846;DHT22;8539;53.188;8.696;2023-02-27T10:16:32;11.70;95.60
16846;DHT22;8539;53.188;8.696;2023-02-27T10:19:05;11.70;95.60
16846;DHT22;8539;53.188;8.696;2023-02-27T10:21:38;11.90;96.20
16846;DHT22;8539;53.188;8.696;2023-02-27T10:27:20;10.90;96.70
16846;DHT22;8539;53.188;8.696;2023-02-27T10:29:46;10.60;97.30
16846;DHT22;8539;53.188;8.696;2023-02-27T10:32:17;10.60;97.80
16846;DHT22;8539;53.188;8.696;2023-02-27T10:35:08;10.40;98.10
16846;DHT22;8539;53.188;8.696;2023-02-27T10:37:34;10.30;98.20
16846;DHT22;8539;53.188;8.696;2023-02-27T10:40:03;10.00;98.60
16846;DHT22;8539;53.188;8.696;2023-02-27T10:42:36;10.10;99.00
16846;DHT22;8539;53.188;8.696;2023-02-27T10:45:04;10.40;99.10
16846;DHT22;8539;53.188;8.696;2023-02-27T10:47:30;10.70;99.10
16846;DHT22;8539;53.188;8.696;2023-02-27T10:49:56;10.90;99.00
16846;DHT22;8539;53.188;8.696;2023-02-27T10:52:25;10.80;98.90
16846;DHT22;8539;53.188;8.696;2023-02-27T10:54:51;10.60;98.50
16846;DHT22;8539;53.188;8.696;2023-02-27T10:57:27;10.40;97.60
16846;DHT22;8539;53.188;8.696;2023-02-27T11:00:05;10.10;97.10
16846;DHT22;8539;53.188;8.696;2023-02-27T11:02:38;10.10;96.90
16846;DHT22;8539;53.188;8.696;2023-02-27T11:05:32;10.00;96.80
16846;DHT22;8539;53.188;8.696;2023-02-27T11:08:22;10.00;96.80
16846;DHT22;8539;53.188;8.696;2023-02-27T11:11:03;9.80;96.80
16846;DHT22;8539;53.188;8.696;2023-02-27T11:13:35;9.80;97.00
16846;DHT22;8539;53.188;8.696;2023-02-27T11:16:03;9.80;97.20
16846;DHT22;8539;53.188;8.696;2023-02-27T11:18:30;9.90;97.30
16846;DHT22;8539;53.188;8.696;2023-02-27T11:24:04;10.30;97.00
16846;DHT22;8539;53.188;8.696;2023-02-27T11:29:17;10.70;96.10
16846;DHT22;8539;53.188;8.696;2023-02-27T11:31:55;10.70;95.80
16846;DHT22;8539;53.188;8.696;2023-02-27T11:37:06;10.50;95.50
16846;DHT22;8539;53.188;8.696;2023-02-27T11:39:36;10.40;95.40
16846;DHT22;8539;53.188;8.696;2023-02-27T11:42:23;10.60;95.50
16846;DHT22;8539;53.188;8.696;2023-02-27T11:47:32;10.80;95.30
16846;DHT22;8539;53.188;8.696;2023-02-27T11:50:12;10.40;95.20
16846;DHT22;8539;53.188;8.696;2023-02-27T11:55:46;10.20;94.30
16846;DHT22;8539;53.188;8.696;2023-02-27T11:58:17;10.10;94.00
16846;DHT22;8539;53.188;8.696;2023-02-27T12:00:47;10.00;94.00
16846;DHT22;8539;53.188;8.696;2023-02-27T12:03:29;10.00;94.40
16846;DHT22;8539;53.188;8.696;2023-02-27T12:06:02;10.10;94.60
16846;DHT22;8539;53.188;8.696;2023-02-27T12:08:47;10.20;94.80
16846;DHT22;8539;53.188;8.696;2023-02-27T12:14:00;10.10;95.80
16846;DHT22;8539;53.188;8.696;2023-02-27T12:16:45;9.90;95.80
16846;DHT22;8539;53.188;8.696;2023-02-27T12:21:57;9.30;95.90
16846;DHT22;8539;53.188;8.696;2023-02-27T12:24:29;9.10;95.90
16846;DHT22;8539;53.188;8.696;2023-02-27T12:27:40;8.90;95.90
16846;DHT22;8539;53.188;8.696;2023-02-27T12:30:18;8.70;95.90
16846;DHT22;8539;53.188;8.696;2023-02-27T12:33:35;8.40;96.00
16846;DHT22;8539;53.188;8.696;2023-02-27T12:36:03;8.20;96.10
16846;DHT22;8539;53.188;8.696;2023-02-27T12:38:30;8.10;96.30
16846;DHT22;8539;53.188;8.696;2023-02-27T12:46:31;8.60;97.30
16846;DHT22;8539;53.188;8.696;2023-02-27T12:49:21;8.80;97.60
16846;DHT22;8539;53.188;8.696;2023-02-27T12:57:36;9.20;97.50
16846;DHT22;8539;53.188;8.696;2023-02-27T13:00:21;9.40;97.20
16846;DHT22;8539;53.188;8.696;2023-02-27T13:10:18;8.90;95.70
16846;DHT22;8539;53.188;8.696;2023-02-27T13:12:53;8.80;95.60
16846;DHT22;8539;53.188;8.696;2023-02-27T13:15:29;8.80;95.60
16846;DHT22;8539;53.188;8.696;2023-02-27T13:20:45;9.00;95.90
16846;DHT22;8539;53.188;8.696;2023-02-27T13:25:56;9.00;95.90
16846;DHT22;8539;53.188;8.696;2023-02-27T13:28:28;9.00;95.90
16846;DHT22;8539;53.188;8.696;2023-02-27T13:31:17;9.00;96.00
16846;DHT22;8539;53.188;8.696;2023-02-27T13:36:34;9.30;96.20
16846;DHT22;8539;53.188;8.696;2023-02-27T13:39:00;9.30;96.20
16846;DHT22;8539;53.188;8.696;2023-02-27T13:43:56;9.40;96.40
16846;DHT22;8539;53.188;8.696;2023-02-27T13:46:31;9.10;96.60
16846;DHT22;8539;53.188;8.696;2023-02-27T13:49:21;8.90;96.50
16846;DHT22;8539;53.188;8.696;2023-02-27T13:51:49;8.80;96.80
16846;DHT22;8539;53.188;8.696;2023-02-27T13:59:33;8.60;97.80
16846;DHT22;8539;53.188;8.696;2023-02-27T14:02:02;8.70;98.40
16846;DHT22;8539;53.188;8.696;2023-02-27T14:04:50;8.80;98.60
16846;DHT22;8539;53.188;8.696;2023-02-27T14:07:22;9.00;98.80
16846;DHT22;8539;53.188;8.696;2023-02-27T14:09:51;8.90;98.60
16846;DHT22;8539;53.188;8.696;2023-02-27T14:12:42;8.70;98.50
16846;DHT22;8539;53.188;8.696;2023-02-27T14:17:52;8.30;97.70
16846;DHT22;8539;53.188;8.696;2023-02-27T14:26:17;8.50;97.00
16846;DHT22;8539;53.188;8.696;2023-02-27T14:28:46;8.50;96.90
16846;DHT22;8539;53.188;8.696;2023-02-27T14:31:24;8.50;96.90
16846;DHT22;8539;53.188;8.696;2023-02-27T14:33:52;8.60;96.90
16846;DHT22;8539;53.188;8.696;2023-02-27T14:36:29;8.70;96.70
16846;DHT22;8539;53.188;8.696;2023-02-27T14:38:58;8.70;96.50
16846;DHT22;8539;53.188;8.696;2023-02-27T14:44:24;8.70;96.50
16846;DHT22;8539;53.188;8.696;2023-02-27T14:46:56;8.80;96.10
16846;DHT22;8539;53.188;8.696;2023-02-27T14:49:31;8.80;95.90
16846;DHT22;8539;53.188;8.696;2023-02-27T14:52:21;8.90;95.50
16846;DHT22;8539;53.188;8.696;2023-02-27T14:54:48;8.90;95.40
16846;DHT22;8539;53.188;8.696;2023-02-27T14:57:19;9.10;95.20
16846;DHT22;8539;53.188;8.696;2023-02-27T14:59:48;9.20;94.90
16846;DHT22;8539;53.188;8.696;2023-02-27T15:02:22;9.10;94.70
16846;DHT22;8539;53.188;8.696;2023-02-27T15:07:31;9.00;94.00
16846;DHT22;8539;53.188;8.696;2023-02-27T15:10:00;8.90;94.00
16846;DHT22;8539;53.188;8.696;2023-02-27T15:12:27;8.80;94.00
16846;DHT22;8539;53.188;8.696;2023-02-27T15:14:59;9.00;93.90
16846;DHT22;8539;53.188;8.696;2023-02-27T15:17:35;8.70;93.90
16846;DHT22;8539;53.188;8.696;2023-02-27T15:20:02;8.50;93.90
16846;DHT22;8539;53.188;8.696;2023-02-27T15:22:41;8.40;94.10
16846;DHT22;8539;53.188;8.696;2023-02-27T15:25:35;8.30;94.20
16846;DHT22;8539;53.188;8.696;2023-02-27T15:28:14;8.30;94.10
16846;DHT22;8539;53.188;8.696;2023-02-27T15:30:49;8.10;94.20
16846;DHT22;8539;53.188;8.696;2023-02-27T15:33:17;8.10;94.40
16846;DHT22;8539;53.188;8.696;2023-02-27T15:35:44;8.00;94.50
16846;DHT22;8539;53.188;8.696;2023-02-27T15:38:25;8.00;94.80
16846;DHT22;8539;53.188;8.696;2023-02-27T15:40:52;7.90;94.90
16846;DHT22;8539;53.188;8.696;2023-02-27T15:43:20;7.80;95.20
16846;DHT22;8539;53.188;8.696;2023-02-27T15:45:47;7.80;95.70
16846;DHT22;8539;53.188;8.696;2023-02-27T15:48:15;7.80;96.20
16846;DHT22;8539;53.188;8.696;2023-02-27T15:50:46;7.70;96.70
16846;DHT22;8539;53.188;8.696;2023-02-27T15:53:16;7.60;96.90
16846;DHT22;8539;53.188;8.696;2023-02-27T15:55:51;7.60;97.10
16846;DHT22;8539;53.188;8.696;2023-02-27T15:58:27;7.30;97.30
16846;DHT22;8539;53.188;8.696;2023-02-27T16:01:12;7.20;97.50
16846;DHT22;8539;53.188;8.696;2023-02-27T16:03:51;7.00;97.70
16846;DHT22;8539;53.188;8.696;2023-02-27T16:06:27;6.80;98.30
16846;DHT22;8539;53.188;8.696;2023-02-27T16:09:00;6.80;98.70
16846;DHT22;8539;53.188;8.696;2023-02-27T16:11:32;6.70;99.10
16846;DHT22;8539;53.188;8.696;2023-02-27T16:13:59;6.60;99.40
16846;DHT22;8539;53.188;8.696;2023-02-27T16:16:33;6.50;99.60
16846;DHT22;8539;53.188;8.696;2023-02-27T16:19:23;6.40;99.80
16846;DHT22;8539;53.188;8.696;2023-02-27T16:22:14;6.40;99.90
16846;DHT22;8539;53.188;8.696;2023-02-27T16:24:42;6.30;99.90
16846;DHT22;8539;53.188;8.696;2023-02-27T16:27:34;6.20;99.90
16846;DHT22;8539;53.188;8.696;2023-02-27T16:30:00;6.20;99.90
16846;DHT22;8539;53.188;8.696;2023-02-27T16:32:41;6.10;99.90
16846;DHT22;8539;53.188;8.696;2023-02-27T16:35:19;6.00;99.90
16846;DHT22;8539;53.188;8.696;2023-02-27T16:37:47;5.90;99.90
16846;DHT22;8539;53.188;8.696;2023-02-27T16:40:21;6.00;99.90
16846;DHT22;8539;53.188;8.696;2023-02-27T16:42:47;5.80;99.90
16846;DHT22;8539;53.188;8.696;2023-02-27T16:45:25;5.80;99.90
16846;DHT22;8539;53.188;8.696;2023-02-27T16:47:57;5.70;99.90
16846;DHT22;8539;53.188;8.696;2023-02-27T16:52:58;5.70;99.90
16846;DHT22;8539;53.188;8.696;2023-02-27T16:55:24;5.60;99.90
16846;DHT22;8539;53.188;8.696;2023-02-27T16:57:51;5.60;99.90
16846;DHT22;8539;53.188;8.696;2023-02-27T17:00:19;5.60;99.90
16846;DHT22;8539;53.188;8.696;2023-02-27T17:02:45;5.50;99.90
16846;DHT22;8539;53.188;8.696;2023-02-27T17:05:14;5.50;99.90
16846;DHT22;8539;53.188;8.696;2023-02-27T17:07:41;5.40;99.90
16846;DHT22;8539;53.188;8.696;2023-02-27T17:10:10;5.40;99.90
16846;DHT22;8539;53.188;8.696;2023-02-27T17:12:38;5.30;99.90
16846;DHT22;8539;53.188;8.696;2023-02-27T17:15:05;5.20;99.90
16846;DHT22;8539;53.188;8.696;2023-02-27T17:17:31;5.20;99.90
16846;DHT22;8539;53.188;8.696;2023-02-27T17:19:57;5.20;99.90
16846;DHT22;8539;53.188;8.696;2023-02-27T17:22:23;5.00;99.90
16846;DHT22;8539;53.188;8.696;2023-02-27T17:24:49;5.00;99.90
16846;DHT22;8539;53.188;8.696;2023-02-27T17:27:15;4.90;99.90
16846;DHT22;8539;53.188;8.696;2023-02-27T17:29:41;4.80;99.90
16846;DHT22;8539;53.188;8.696;2023-02-27T17:32:07;4.70;99.90
16846;DHT22;8539;53.188;8.696;2023-02-27T17:34:33;4.70;99.90
16846;DHT22;8539;53.188;8.696;2023-02-27T17:36:59;4.60;99.90
16846;DHT22;8539;53.188;8.696;2023-02-27T17:39:26;4.50;99.90
16846;DHT22;8539;53.188;8.696;2023-02-27T17:41:52;4.40;99.90
16846;DHT22;8539;53.188;8.696;2023-02-27T17:44:19;4.40;99.90
16846;DHT22;8539;53.188;8.696;2023-02-27T17:46:45;4.30;99.90
16846;DHT22;8539;53.188;8.696;2023-02-27T17:49:11;4.30;99.90
16846;DHT22;8539;53.188;8.696;2023-02-27T17:51:38;4.20;99.90
16846;DHT22;8539;53.188;8.696;2023-02-27T17:54:05;4.10;99.90
16846;DHT22;8539;53.188;8.696;2023-02-27T17:56:32;4.00;99.90
16846;DHT22;8539;53.188;8.696;2023-02-27T17:58:58;4.00;99.90
16846;DHT22;8539;53.188;8.696;2023-02-27T18:01:25;3.70;99.90
16846;DHT22;8539;53.188;8.696;2023-02-27T18:03:52;3.60;99.90
16846;DHT22;8539;53.188;8.696;2023-02-27T18:06:19;3.50;99.90
16846;DHT22;8539;53.188;8.696;2023-02-27T18:08:46;3.30;99.90
16846;DHT22;8539;53.188;8.696;2023-02-27T18:11:15;3.30;99.90
16846;DHT22;8539;53.188;8.696;2023-02-27T18:13:42;3.10;99.90
16846;DHT22;8539;53.188;8.696;2023-02-27T18:16:09;3.10;99.90
16846;DHT22;8539;53.188;8.696;2023-02-27T18:18:36;3.10;99.90
16846;DHT22;8539;53.188;8.696;2023-02-27T18:21:10;3.00;99.90
16846;DHT22;8539;53.188;8.696;2023-02-27T18:23:36;2.90;99.90
16846;DHT22;8539;53.188;8.696;2023-02-27T18:26:03;2.90;99.90
16846;DHT22;8539;53.188;8.696;2023-02-27T18:28:30;2.60;99.90
16846;DHT22;8539;53.188;8.696;2023-02-27T18:30:56;2.50;99.90
16846;DHT22;8539;53.188;8.696;2023-02-27T18:33:22;2.40;99.90
16846;DHT22;8539;53.188;8.696;2023-02-27T18:35:49;2.30;99.90
16846;DHT22;8539;53.188;8.696;2023-02-27T18:38:15;2.80;99.90
16846;DHT22;8539;53.188;8.696;2023-02-27T18:40:41;2.10;99.90
16846;DHT22;8539;53.188;8.696;2023-02-27T18:43:09;2.30;99.90
16846;DHT22;8539;53.188;8.696;2023-02-27T18:45:36;1.90;99.90
16846;DHT22;8539;53.188;8.696;2023-02-27T18:48:03;1.80;99.90
16846;DHT22;8539;53.188;8.696;2023-02-27T18:50:30;1.70;99.90
16846;DHT22;8539;53.188;8.696;2023-02-27T18:52:57;1.70;99.90
16846;DHT22;8539;53.188;8.696;2023-02-27T18:55:25;1.60;99.90
16846;DHT22;8539;53.188;8.696;2023-02-27T18:57:51;1.60;99.90
16846;DHT22;8539;53.188;8.696;2023-02-27T19:00:18;1.60;99.90
16846;DHT22;8539;53.188;8.696;2023-02-27T19:02:46;1.60;99.90
16846;DHT22;8539;53.188;8.696;2023-02-27T19:05:12;1.60;99.90
16846;DHT22;8539;53.188;8.696;2023-02-27T19:07:39;1.60;99.90
16846;DHT22;8539;53.188;8.696;2023-02-27T19:10:06;1.60;99.90
16846;DHT22;8539;53.188;8.696;2023-02-27T19:12:33;1.60;99.90
16846;DHT22;8539;53.188;8.696;2023-02-27T19:14:59;1.60;99.90